createdAt,value
2018-09-03T00:00:30.068Z,22.99
2018-09-03T00:02:58.280Z,22.94
2018-09-03T00:05:26.548Z,22.90
2018-09-03T00:07:54.744Z,22.81
2018-09-03T00:10:22.967Z,22.80
2018-09-03T00:12:51.200Z,22.82
2018-09-03T00:15:19.426Z,22.85
2018-09-03T00:17:47.634Z,22.90
2018-09-03T00:20:15.860Z,22.88
2018-09-03T00:22:44.160Z,22.85
2018-09-03T00:25:12.381Z,22.88
2018-09-03T00:27:40.616Z,22.85
2018-09-03T00:30:08.855Z,22.92
2018-09-03T00:32:42.276Z,22.95
2018-09-03T00:35:15.759Z,22.93
2018-09-03T00:37:49.401Z,22.92
2018-09-03T00:40:22.935Z,22.91
2018-09-03T00:42:56.468Z,22.89
2018-09-03T00:45:29.993Z,22.88
2018-09-03T00:47:58.208Z,22.82
2018-09-03T00:50:26.460Z,22.84
2018-09-03T00:52:54.703Z,22.72
2018-09-03T00:55:22.928Z,22.58
2018-09-03T00:57:51.128Z,22.45
2018-09-03T01:00:19.368Z,22.47
2018-09-03T01:02:47.560Z,22.45
2018-09-03T01:05:15.767Z,22.49
2018-09-03T01:07:44.030Z,22.52
2018-09-03T01:10:12.240Z,22.37
2018-09-03T01:12:40.468Z,22.17
2018-09-03T01:15:08.685Z,22.21
2018-09-03T01:17:36.900Z,22.29
2018-09-03T01:20:05.109Z,22.22
2018-09-03T01:22:33.336Z,22.27
2018-09-03T01:25:01.600Z,22.21
2018-09-03T01:27:29.867Z,22.21
2018-09-03T01:29:58.072Z,22.14
2018-09-03T01:32:26.300Z,21.97
2018-09-03T01:34:54.511Z,21.94
2018-09-03T01:37:22.747Z,21.88
2018-09-03T01:39:50.939Z,21.80
2018-09-03T01:42:19.147Z,21.75
2018-09-03T01:44:47.368Z,21.73
2018-09-03T01:47:15.618Z,21.81
2018-09-03T01:49:43.844Z,21.83
2018-09-03T01:52:12.072Z,21.91
2018-09-03T01:54:40.297Z,21.94
2018-09-03T01:57:08.504Z,21.88
2018-09-03T01:59:36.692Z,21.87
2018-09-03T02:02:04.935Z,21.92
2018-09-03T02:04:33.141Z,21.97
2018-09-03T02:07:01.347Z,22.08
2018-09-03T02:09:29.560Z,22.17
2018-09-03T02:11:57.845Z,22.20
2018-09-03T02:14:26.140Z,22.22
2018-09-03T02:16:54.408Z,22.14
2018-09-03T02:19:22.712Z,21.99
2018-09-03T02:21:50.973Z,21.90
2018-09-03T02:24:19.227Z,21.87
2018-09-03T02:26:47.493Z,21.94
2018-09-03T02:29:15.787Z,21.90
2018-09-03T02:31:44.074Z,21.90
2018-09-03T02:34:12.351Z,21.76
2018-09-03T02:36:40.655Z,21.71
2018-09-03T02:39:08.989Z,21.64
2018-09-03T02:41:37.249Z,21.59
2018-09-03T02:44:05.515Z,21.67
2018-09-03T02:46:33.762Z,21.62
2018-09-03T02:49:02.089Z,21.63
2018-09-03T02:51:30.397Z,21.62
2018-09-03T02:53:58.727Z,21.65
2018-09-03T02:56:27.017Z,21.71
2018-09-03T02:58:55.318Z,21.70
2018-09-03T03:01:23.621Z,21.66
2018-09-03T03:03:51.907Z,21.60
2018-09-03T03:06:20.148Z,21.67
2018-09-03T03:08:48.382Z,21.70
2018-09-03T03:11:16.634Z,21.75
2018-09-03T03:13:44.836Z,21.80
2018-09-03T03:16:13.072Z,21.81
2018-09-03T03:18:41.340Z,21.83
2018-09-03T03:21:09.609Z,21.82
2018-09-03T03:23:37.805Z,21.83
2018-09-03T03:26:06.044Z,21.83
2018-09-03T03:28:34.385Z,21.85
2018-09-03T03:31:02.639Z,21.87
2018-09-03T03:33:30.904Z,21.83
2018-09-03T03:35:59.209Z,21.82
2018-09-03T03:38:27.553Z,21.82
2018-09-03T03:40:55.820Z,21.76
2018-09-03T03:43:24.045Z,21.71
2018-09-03T03:45:52.279Z,21.70
2018-09-03T03:48:20.492Z,21.74
2018-09-03T03:50:48.744Z,21.75
2018-09-03T03:53:16.990Z,21.72
2018-09-03T03:55:45.224Z,21.80
2018-09-03T03:58:13.454Z,21.81
2018-09-03T04:00:41.740Z,21.82
2018-09-03T04:03:09.962Z,21.73
2018-09-03T04:05:38.212Z,21.62
2018-09-03T04:08:06.474Z,21.49
2018-09-03T04:10:34.745Z,21.38
2018-09-03T04:13:05.368Z,21.39
2018-09-03T04:15:35.144Z,21.34
2018-09-03T04:18:03.949Z,21.36
2018-09-03T04:20:32.208Z,21.39
2018-09-03T04:23:00.468Z,21.36
2018-09-03T04:25:28.690Z,21.30
2018-09-03T04:27:56.972Z,21.25
2018-09-03T04:30:25.196Z,21.31
2018-09-03T04:32:53.876Z,21.38
2018-09-03T04:35:22.160Z,21.39
2018-09-03T04:37:50.379Z,21.39
2018-09-03T04:40:18.588Z,21.30
2018-09-03T04:42:46.820Z,21.18
2018-09-03T04:45:15.088Z,21.15
2018-09-03T04:47:43.392Z,21.16
2018-09-03T04:50:11.613Z,21.18
2018-09-03T04:52:39.857Z,21.20
2018-09-03T04:55:08.144Z,21.31
2018-09-03T04:57:36.349Z,21.41
2018-09-03T05:00:05.535Z,21.46
2018-09-03T05:02:33.744Z,21.50
2018-09-03T05:05:02.006Z,21.54
2018-09-03T05:07:30.232Z,21.58
2018-09-03T05:09:58.440Z,21.60
2018-09-03T05:12:26.673Z,21.42
2018-09-03T05:17:34.459Z,21.29
2018-09-03T05:20:02.684Z,21.24
2018-09-03T05:22:30.880Z,21.05
2018-09-03T05:24:59.148Z,21.04
2018-09-03T05:27:27.342Z,21.07
2018-09-03T05:29:55.595Z,20.82
2018-09-03T05:32:23.810Z,20.92
2018-09-03T05:34:52.037Z,20.92
2018-09-03T05:37:20.252Z,20.92
2018-09-03T05:39:48.480Z,21.06
2018-09-03T05:42:16.689Z,21.01
2018-09-03T05:44:44.908Z,21.07
2018-09-03T05:47:13.124Z,21.15
2018-09-03T05:49:41.365Z,21.10
2018-09-03T05:52:09.629Z,20.91
2018-09-03T05:54:37.892Z,20.82
2018-09-03T05:57:06.116Z,20.78
2018-09-03T05:59:34.336Z,20.72
2018-09-03T06:02:02.581Z,20.50
2018-09-03T06:04:30.820Z,20.43
2018-09-03T06:06:59.037Z,20.45
2018-09-03T06:09:27.255Z,20.43
2018-09-03T06:11:55.464Z,20.36
2018-09-03T06:14:23.768Z,20.44
2018-09-03T06:16:51.991Z,20.42
2018-09-03T06:19:20.224Z,20.54
2018-09-03T06:21:48.427Z,20.61
2018-09-03T06:24:16.631Z,20.46
2018-09-03T06:26:44.905Z,20.51
2018-09-03T06:29:13.097Z,20.57
2018-09-03T06:31:41.332Z,20.62
2018-09-03T06:34:09.549Z,20.60
2018-09-03T06:36:37.775Z,20.72
2018-09-03T06:39:07.664Z,20.74
2018-09-03T06:41:35.929Z,20.72
2018-09-03T06:44:04.144Z,20.86
2018-09-03T06:46:32.618Z,20.91
2018-09-03T06:49:00.848Z,20.92
2018-09-03T06:51:29.075Z,20.85
2018-09-03T06:53:57.347Z,20.80
2018-09-03T06:56:25.572Z,20.79
2018-09-03T06:58:53.796Z,20.73
2018-09-03T07:01:22.011Z,20.76
2018-09-03T07:03:50.220Z,20.74
2018-09-03T07:06:18.449Z,20.78
2018-09-03T07:08:46.646Z,21.01
2018-09-03T07:11:14.903Z,20.82
2018-09-03T07:13:43.109Z,20.93
2018-09-03T07:16:11.399Z,20.85
2018-09-03T07:18:39.676Z,20.94
2018-09-03T07:21:07.860Z,21.04
2018-09-03T07:23:36.085Z,21.13
2018-09-03T07:26:04.291Z,21.37
2018-09-03T07:28:32.519Z,21.56
2018-09-03T07:31:00.725Z,21.55
2018-09-03T07:33:28.961Z,21.61
2018-09-03T07:35:57.244Z,21.67
2018-09-03T07:38:25.995Z,21.82
2018-09-03T07:40:54.198Z,21.89
2018-09-03T07:43:22.442Z,21.84
2018-09-03T07:45:50.641Z,21.87
2018-09-03T07:48:18.876Z,21.97
2018-09-03T07:50:47.093Z,21.92
2018-09-03T07:53:15.332Z,22.14
2018-09-03T07:55:43.540Z,22.21
2018-09-03T07:58:11.808Z,22.29
2018-09-03T08:00:40.021Z,22.49
2018-09-03T08:03:08.265Z,22.70
2018-09-03T08:05:36.475Z,22.83
2018-09-03T08:08:04.765Z,22.69
2018-09-03T08:10:32.991Z,22.77
2018-09-03T08:13:01.268Z,22.84
2018-09-03T08:15:29.464Z,22.96
2018-09-03T08:17:57.707Z,23.08
2018-09-03T08:20:25.921Z,23.16
2018-09-03T08:22:54.156Z,23.02
2018-09-03T08:25:22.370Z,22.90
2018-09-03T08:27:50.584Z,22.99
2018-09-03T08:30:18.913Z,22.85
2018-09-03T08:32:47.164Z,22.80
2018-09-03T08:35:15.428Z,22.80
2018-09-03T08:37:43.648Z,22.78
2018-09-03T08:40:11.876Z,22.93
2018-09-03T08:42:40.086Z,23.14
2018-09-03T08:45:08.304Z,23.33
2018-09-03T08:47:36.509Z,23.28
2018-09-03T08:50:04.745Z,23.26
2018-09-03T08:52:32.972Z,23.30
2018-09-03T08:55:01.234Z,23.47
2018-09-03T08:57:29.436Z,23.66
2018-09-03T08:59:57.672Z,23.76
2018-09-03T09:02:25.868Z,23.86
2018-09-03T09:04:54.096Z,23.80
2018-09-03T09:07:22.312Z,23.93
2018-09-03T09:09:50.539Z,24.09
2018-09-03T09:12:18.765Z,24.33
2018-09-03T09:14:46.989Z,24.47
2018-09-03T09:17:15.291Z,24.61
2018-09-03T09:19:43.532Z,24.57
2018-09-03T09:22:11.752Z,24.60
2018-09-03T09:24:39.996Z,24.59
2018-09-03T09:27:08.200Z,24.65
2018-09-03T09:29:36.408Z,24.99
2018-09-03T09:32:04.652Z,25.10
2018-09-03T09:34:32.870Z,25.16
2018-09-03T09:37:01.148Z,25.17
2018-09-03T09:39:29.350Z,25.24
2018-09-03T09:41:57.576Z,25.29
2018-09-03T09:44:25.816Z,25.17
2018-09-03T09:46:54.050Z,25.18
2018-09-03T09:49:23.644Z,25.42
2018-09-03T09:51:51.872Z,25.53
2018-09-03T09:54:20.124Z,25.38
2018-09-03T09:56:48.368Z,25.13
2018-09-03T09:59:16.630Z,25.23
2018-09-03T10:01:44.875Z,25.42
2018-09-03T10:04:13.134Z,25.45
2018-09-03T10:06:41.355Z,25.56
2018-09-03T10:09:09.580Z,25.71
2018-09-03T10:11:37.820Z,25.86
2018-09-03T10:14:06.403Z,26.06
2018-09-03T10:16:34.693Z,26.14
2018-09-03T10:19:02.917Z,26.23
2018-09-03T10:21:31.151Z,26.36
2018-09-03T10:23:59.363Z,26.35
2018-09-03T10:26:27.609Z,26.35
2018-09-03T10:28:55.856Z,26.40
2018-09-03T10:31:24.125Z,26.39
2018-09-03T10:33:52.347Z,26.48
2018-09-03T10:36:20.580Z,26.32
2018-09-03T10:38:48.833Z,26.35
2018-09-03T10:41:17.037Z,26.36
2018-09-03T10:43:45.281Z,26.43
2018-09-03T10:46:13.507Z,26.50
2018-09-03T10:48:41.916Z,26.49
2018-09-03T10:51:10.219Z,26.60
2018-09-03T10:53:38.476Z,26.56
2018-09-03T10:56:06.831Z,26.73
2018-09-03T10:58:35.052Z,26.77
2018-09-03T11:01:03.272Z,26.90
2018-09-03T11:03:31.508Z,27.03
2018-09-03T11:05:59.720Z,27.21
2018-09-03T11:08:27.955Z,27.03
2018-09-03T11:10:56.179Z,27.04
2018-09-03T11:13:24.439Z,26.97
2018-09-03T11:15:52.656Z,27.03
2018-09-03T11:18:20.908Z,27.01
2018-09-03T11:20:49.143Z,26.98
2018-09-03T11:23:17.392Z,27.12
2018-09-03T11:25:45.636Z,27.25
2018-09-03T11:28:13.880Z,27.21
2018-09-03T11:30:42.106Z,27.17
2018-09-03T11:33:10.374Z,27.35
2018-09-03T11:35:38.588Z,27.48
2018-09-03T11:38:06.822Z,27.59
2018-09-03T11:40:35.072Z,27.58
2018-09-03T11:43:03.291Z,27.50
2018-09-03T11:45:31.532Z,27.66
2018-09-03T11:47:59.764Z,27.80
2018-09-03T11:50:27.996Z,27.94
2018-09-03T11:52:56.219Z,28.02
2018-09-03T11:55:24.473Z,28.03
2018-09-03T11:57:52.728Z,27.95
2018-09-03T12:00:26.861Z,27.91
2018-09-03T12:02:55.140Z,27.95
2018-09-03T12:05:23.419Z,28.00
2018-09-03T12:07:51.645Z,28.07
2018-09-03T12:10:19.895Z,28.12
2018-09-03T12:12:48.276Z,27.87
2018-09-03T12:15:24.068Z,28.14
2018-09-03T12:17:52.340Z,28.14
2018-09-03T12:20:20.592Z,28.27
2018-09-03T12:22:48.867Z,28.37
2018-09-03T12:25:18.164Z,28.34
2018-09-03T12:27:46.442Z,28.33
2018-09-03T12:30:14.658Z,28.23
2018-09-03T12:32:43.103Z,28.39
2018-09-03T12:35:11.372Z,28.41
2018-09-03T12:37:39.597Z,28.32
2018-09-03T12:40:07.829Z,28.27
2018-09-03T12:42:36.072Z,28.32
2018-09-03T12:45:04.391Z,28.35
2018-09-03T12:47:32.711Z,28.47
2018-09-03T13:03:27.183Z,28.45
2018-09-03T13:05:56.854Z,28.46
2018-09-03T13:08:26.466Z,28.57
2018-09-03T13:26:09.503Z,28.35
2018-09-03T13:28:37.720Z,28.35
2018-09-03T13:31:05.987Z,28.43
2018-09-03T13:33:34.218Z,28.39
2018-09-03T13:36:02.593Z,28.42
2018-09-03T13:38:30.820Z,28.47
2018-09-03T13:40:59.065Z,28.53
2018-09-03T13:43:27.328Z,28.69
2018-09-03T13:45:55.549Z,28.79
2018-09-03T13:48:23.831Z,28.82
2018-09-03T13:50:52.028Z,28.82
2018-09-03T14:06:38.496Z,29.11
2018-09-03T14:09:08.178Z,29.10
2018-09-03T14:11:36.547Z,29.07
2018-09-03T14:14:05.094Z,29.13
2018-09-03T14:16:33.825Z,29.02
2018-09-03T14:19:02.252Z,29.05
2018-09-03T14:21:30.651Z,29.10
2018-09-03T14:23:58.928Z,29.17
2018-09-03T14:26:27.954Z,29.17
2018-09-03T14:28:56.436Z,29.13
2018-09-03T14:31:24.684Z,28.95
2018-09-03T14:33:54.213Z,29.01
2018-09-03T14:36:22.680Z,29.08
2018-09-03T14:38:51.644Z,29.14
2018-09-03T14:41:20.242Z,29.13
2018-09-03T14:43:48.608Z,29.15
2018-09-03T14:46:16.848Z,29.13
2018-09-03T14:48:46.448Z,29.25
2018-09-03T14:51:15.025Z,29.29
2018-09-03T14:53:43.428Z,29.30
2018-09-03T14:56:11.830Z,29.40
2018-09-03T14:58:44.064Z,29.43
2018-09-03T15:01:12.404Z,29.44
2018-09-03T15:03:40.729Z,29.50
2018-09-03T15:06:10.233Z,29.43
2018-09-03T15:08:39.812Z,29.54
2018-09-03T15:11:08.666Z,29.55
2018-09-03T15:13:37.004Z,29.58
2018-09-03T15:16:05.239Z,29.58
2018-09-03T15:18:33.705Z,29.61
2018-09-03T15:21:02.121Z,29.64
2018-09-03T15:23:31.200Z,29.66
2018-09-03T15:25:59.472Z,29.63
2018-09-03T15:28:28.076Z,29.71
2018-09-03T15:30:56.580Z,29.72
2018-09-03T15:33:24.809Z,29.79
2018-09-03T15:35:53.132Z,29.88
2018-09-03T15:38:21.356Z,29.95
2018-09-03T15:40:49.719Z,29.96
2018-09-03T15:43:18.103Z,29.82
2018-09-03T15:45:46.436Z,29.93
2018-09-03T15:48:14.733Z,29.98
2018-09-03T15:50:43.010Z,30.02
2018-09-03T15:53:11.272Z,30.00
2018-09-03T15:55:39.512Z,29.97
2018-09-03T15:58:07.825Z,30.03
2018-09-03T16:00:36.097Z,30.02
2018-09-03T16:03:04.480Z,30.06
2018-09-03T16:05:32.671Z,30.07
2018-09-03T16:08:00.910Z,30.00
2018-09-03T16:10:29.143Z,30.09
2018-09-03T16:12:57.412Z,30.08
2018-09-03T16:15:25.688Z,30.06
2018-09-03T16:17:54.107Z,29.92
2018-09-03T16:20:22.736Z,29.94
2018-09-03T16:22:50.972Z,29.93
2018-09-03T16:25:19.208Z,29.90
2018-09-03T16:27:47.503Z,29.86
2018-09-03T16:30:15.688Z,29.86
2018-09-03T16:32:43.944Z,29.79
2018-09-03T16:35:12.152Z,29.69
2018-09-03T16:37:40.401Z,29.62
2018-09-03T16:40:09.251Z,29.62
2018-09-03T16:42:37.492Z,29.64
2018-09-03T16:45:05.797Z,29.64
2018-09-03T16:47:34.042Z,29.66
2018-09-03T16:50:02.277Z,29.69
2018-09-03T16:52:30.593Z,29.70
2018-09-03T16:54:58.840Z,29.73
2018-09-03T16:57:27.160Z,29.71
2018-09-03T16:59:55.436Z,29.66
2018-09-03T17:02:23.652Z,29.63
2018-09-03T17:04:51.939Z,29.62
2018-09-03T17:07:20.213Z,29.66
2018-09-03T17:09:48.492Z,29.63
2018-09-03T17:12:16.700Z,29.63
2018-09-03T17:14:44.949Z,29.60
2018-09-03T17:17:13.196Z,29.51
2018-09-03T17:19:41.912Z,29.49
2018-09-03T17:22:10.237Z,29.46
2018-09-03T17:24:38.472Z,29.44
2018-09-03T17:27:06.700Z,29.42
2018-09-03T17:29:34.954Z,29.41
2018-09-03T17:32:03.197Z,29.38
2018-09-03T17:34:31.452Z,29.37
2018-09-03T17:36:59.687Z,29.33
2018-09-03T17:39:27.924Z,29.31
2018-09-03T17:41:56.160Z,29.30
2018-09-03T17:44:24.416Z,29.22
2018-09-03T17:46:52.648Z,29.21
2018-09-03T17:49:20.973Z,29.13
2018-09-03T17:51:49.164Z,29.14
2018-09-03T17:54:17.426Z,28.81
2018-09-03T17:56:45.669Z,28.77
2018-09-03T17:59:14.024Z,28.71
2018-09-03T18:01:42.276Z,28.68
2018-09-03T18:04:10.840Z,28.71
2018-09-03T18:06:39.076Z,28.76
2018-09-03T18:09:07.556Z,28.82
2018-09-03T18:11:35.927Z,28.92
2018-09-03T18:14:04.299Z,28.88
2018-09-03T18:16:32.767Z,28.93
2018-09-03T18:19:01.041Z,28.91
2018-09-03T18:21:29.456Z,28.95
2018-09-03T18:23:57.720Z,29.00
2018-09-03T18:26:25.989Z,28.98
2018-09-03T18:28:54.263Z,28.97
2018-09-03T18:31:22.563Z,28.99
2018-09-03T18:33:50.801Z,28.96
2018-09-03T18:36:19.095Z,28.96
2018-09-03T18:38:47.418Z,28.93
2018-09-03T18:41:15.774Z,28.87
2018-09-03T18:43:44.139Z,28.83
2018-09-03T18:46:12.440Z,28.70
2018-09-03T18:48:40.726Z,28.51
2018-09-03T18:51:09.067Z,28.52
2018-09-03T18:53:37.451Z,28.52
2018-09-03T18:56:06.035Z,28.48
2018-09-03T18:58:34.549Z,28.43
2018-09-03T19:01:02.899Z,28.49
2018-09-03T19:03:31.273Z,28.52
2018-09-03T19:05:59.701Z,28.45
2018-09-03T19:08:27.973Z,28.35
2018-09-03T19:10:56.253Z,28.18
2018-09-03T19:13:24.586Z,28.11
2018-09-03T19:15:52.898Z,27.95
2018-09-03T19:18:21.321Z,27.82
2018-09-03T19:20:49.702Z,27.70
2018-09-03T19:23:18.014Z,27.62
2018-09-03T19:25:46.336Z,27.57
2018-09-03T19:28:14.612Z,27.58
2018-09-03T19:30:42.848Z,27.59
2018-09-03T19:33:11.696Z,27.71
2018-09-03T19:35:39.901Z,27.73
2018-09-03T19:38:08.147Z,27.54
2018-09-03T19:40:36.495Z,27.48
2018-09-03T19:43:04.746Z,27.54
2018-09-03T19:45:32.985Z,27.43
2018-09-03T19:48:01.219Z,27.39
2018-09-03T19:50:29.449Z,27.44
2018-09-03T19:52:57.727Z,27.42
2018-09-03T19:55:25.993Z,27.31
2018-09-03T19:57:54.216Z,27.36
2018-09-03T20:00:22.460Z,27.36
2018-09-03T20:02:50.692Z,27.31
2018-09-03T20:05:18.901Z,27.34
2018-09-03T20:07:47.187Z,27.36
2018-09-03T20:10:15.420Z,27.39
2018-09-03T20:12:43.645Z,27.37
2018-09-03T20:15:14.144Z,27.37
2018-09-03T20:17:42.384Z,27.22
2018-09-03T20:20:10.624Z,27.14
2018-09-03T20:22:38.861Z,27.05
2018-09-03T20:25:07.241Z,26.97
2018-09-03T20:27:35.469Z,26.96
2018-09-03T20:30:03.705Z,27.05
2018-09-03T20:32:32.400Z,27.06
2018-09-03T20:35:00.627Z,27.14
2018-09-03T20:37:28.905Z,27.13
2018-09-03T20:39:57.216Z,27.16
2018-09-03T20:42:25.426Z,27.17
2018-09-03T20:44:53.892Z,27.06
2018-09-03T20:47:22.040Z,27.02
2018-09-03T20:49:50.300Z,27.00
2018-09-03T20:52:18.557Z,27.02
2018-09-03T20:54:46.877Z,27.01
2018-09-03T20:57:15.141Z,26.98
2018-09-03T20:59:43.411Z,26.88
2018-09-03T21:02:11.632Z,26.90
2018-09-03T21:04:39.895Z,26.95
2018-09-03T21:07:08.365Z,26.94
2018-09-03T21:09:37.361Z,26.95
2018-09-03T21:12:05.652Z,26.90
2018-09-03T21:14:33.933Z,26.76
2018-09-03T21:17:02.170Z,26.79
2018-09-03T21:19:30.389Z,26.76
2018-09-03T21:21:58.674Z,26.57
2018-09-03T21:24:26.948Z,26.54
2018-09-03T21:26:55.195Z,26.55
2018-09-03T21:29:23.430Z,26.62
2018-09-03T21:31:51.673Z,26.63
2018-09-03T21:34:19.908Z,26.66
2018-09-03T21:36:48.249Z,26.61
2018-09-03T21:39:16.522Z,26.57
2018-09-03T21:41:44.740Z,26.54
2018-09-03T21:44:12.980Z,26.51
2018-09-03T21:46:41.250Z,26.49
2018-09-03T21:49:09.896Z,26.46
2018-09-03T21:51:38.152Z,26.42
2018-09-03T21:54:06.480Z,26.40
2018-09-03T21:56:34.724Z,26.35
2018-09-03T21:59:03.000Z,26.28
2018-09-03T22:01:31.248Z,26.20
2018-09-03T22:03:59.517Z,26.11
2018-09-03T22:06:28.984Z,26.10
2018-09-03T22:08:57.553Z,26.03
2018-09-03T22:11:26.104Z,25.96
2018-09-03T22:13:54.323Z,25.92
2018-09-03T22:16:22.640Z,25.89
2018-09-03T22:18:50.901Z,25.80
2018-09-03T22:21:19.220Z,25.77
2018-09-03T22:23:47.491Z,25.75
2018-09-03T22:26:15.764Z,25.71
2018-09-03T22:28:44.012Z,25.63
2018-09-03T22:31:12.233Z,25.56
2018-09-03T22:33:40.465Z,25.50
2018-09-03T22:36:08.776Z,25.46
2018-09-03T22:38:37.152Z,25.40
2018-09-03T22:41:05.659Z,25.36
2018-09-03T22:43:33.884Z,25.33
2018-09-03T22:46:02.120Z,25.27
2018-09-03T22:48:30.361Z,25.25
2018-09-03T22:50:58.628Z,25.20
2018-09-03T22:53:26.871Z,25.04
2018-09-03T22:55:55.077Z,24.94
2018-09-03T22:58:23.312Z,24.85
2018-09-03T23:00:51.537Z,24.67
2018-09-03T23:03:19.809Z,24.43
2018-09-03T23:05:48.201Z,24.34
2018-09-03T23:08:16.292Z,24.23
2018-09-03T23:10:44.516Z,24.17
2018-09-03T23:13:12.769Z,24.15
2018-09-03T23:15:45.155Z,24.08
2018-09-03T23:18:13.423Z,24.09
2018-09-03T23:20:41.652Z,24.11
2018-09-03T23:23:09.875Z,24.10
2018-09-03T23:25:38.135Z,24.11
2018-09-03T23:28:06.349Z,24.16
2018-09-03T23:30:34.588Z,24.21
2018-09-03T23:33:02.808Z,24.24
2018-09-03T23:35:31.052Z,24.20
2018-09-03T23:37:59.289Z,24.18
2018-09-03T23:40:27.528Z,24.23
2018-09-03T23:42:55.764Z,24.23
2018-09-03T23:45:23.999Z,24.24
2018-09-03T23:47:52.212Z,24.25
2018-09-03T23:50:20.455Z,24.23
2018-09-03T23:52:48.696Z,24.20
2018-09-03T23:55:16.948Z,24.16
2018-09-03T23:57:45.221Z,24.18
